LOT896 UUEE-EPWA
Flight info
| Callsign | LOT896 |
|---|---|
| Flight time | 1h 35m |
| Altitude | 38000 |
| Route | LIDRI3H LIDRI T781 REPNU N858 VEPIS Y219 LAPKI N869 OSMUS T174 RUDKA/N0455F380 M863 ETUBO M866 GERVI/N0389F200 P851 NEPOX |
| Aircraft | B763/H-SDE3FGHIM3RWXY/LB1 |
Departure
| Time | 2026-05-07 18:21 |
|---|---|
| Airport | Sheremetyevo International Airport (UUEE) |
Arrival
| Time | 2026-05-07 19:56 |
|---|---|
| Airport | Warsaw Chopin Airport (EPWA) |
| Time | Latitude | Longitude | Altitude | Speed | Heading |
|---|---|---|---|---|---|
| 2026-05-07 17:59 | 55.96569 | 37.40352 | 644 ft | 0 kts | 107° |
| 2026-05-07 18:00 | 55.96569 | 37.40353 | 644 ft | 0 kts | 107° |
| 2026-05-07 18:01 | 55.96569 | 37.40354 | 644 ft | 0 kts | 107° |
| 2026-05-07 18:02 | 55.96569 | 37.40355 | 644 ft | 0 kts | 107° |
| 2026-05-07 18:03 | 55.96569 | 37.40356 | 644 ft | 0 kts | 107° |
| 2026-05-07 18:05 | 55.96568 | 37.40356 | 644 ft | 0 kts | 107° |
| 2026-05-07 18:06 | 55.96568 | 37.40357 | 644 ft | 0 kts | 107° |
| 2026-05-07 18:07 | 55.96568 | 37.40358 | 644 ft | 0 kts | 107° |
| 2026-05-07 18:08 | 55.96568 | 37.40359 | 644 ft | 0 kts | 107° |
| 2026-05-07 18:09 | 55.96568 | 37.40360 | 644 ft | 0 kts | 107° |
| 2026-05-07 18:10 | 55.96568 | 37.40361 | 644 ft | 0 kts | 107° |
| 2026-05-07 18:10 | 55.96568 | 37.40358 | 644 ft | 1 kts | 107° |
| 2026-05-07 18:10 | 55.96572 | 37.40335 | 644 ft | 3 kts | 107° |
| 2026-05-07 18:11 | 55.96578 | 37.40302 | 644 ft | 3 kts | 107° |
| 2026-05-07 18:11 | 55.96584 | 37.40267 | 644 ft | 3 kts | 107° |
| 2026-05-07 18:11 | 55.96590 | 37.40233 | 644 ft | 3 kts | 107° |
| 2026-05-07 18:11 | 55.96596 | 37.40197 | 644 ft | 3 kts | 107° |
| 2026-05-07 18:12 | 55.96588 | 37.40217 | 644 ft | 9 kts | 134° |
| 2026-05-07 18:12 | 55.96551 | 37.40214 | 644 ft | 4 kts | 197° |
| 2026-05-07 18:12 | 55.96537 | 37.40210 | 644 ft | 0 kts | 182° |
| 2026-05-07 18:12 | 55.96535 | 37.40211 | 644 ft | 0 kts | 177° |
| 2026-05-07 18:13 | 55.96506 | 37.40220 | 644 ft | 6 kts | 169° |
| 2026-05-07 18:13 | 55.96479 | 37.40229 | 644 ft | 2 kts | 169° |
| 2026-05-07 18:13 | 55.96451 | 37.40238 | 644 ft | 9 kts | 175° |
| 2026-05-07 18:14 | 55.96388 | 37.40177 | 644 ft | 7 kts | 246° |
| 2026-05-07 18:14 | 55.96380 | 37.40118 | 644 ft | 6 kts | 258° |
| 2026-05-07 18:14 | 55.96377 | 37.40057 | 644 ft | 6 kts | 285° |
| 2026-05-07 18:14 | 55.96391 | 37.40009 | 644 ft | 10 kts | 316° |
| 2026-05-07 18:15 | 55.96475 | 37.39945 | 644 ft | 9 kts | 343° |
| 2026-05-07 18:15 | 55.96523 | 37.39919 | 644 ft | 5 kts | 343° |
| 2026-05-07 18:15 | 55.96554 | 37.39902 | 644 ft | 3 kts | 344° |
| 2026-05-07 18:15 | 55.96610 | 37.39877 | 644 ft | 9 kts | 346° |
| 2026-05-07 18:16 | 55.96656 | 37.39873 | 644 ft | 6 kts | 15° |
| 2026-05-07 18:16 | 55.96704 | 37.39982 | 644 ft | 11 kts | 72° |
| 2026-05-07 18:16 | 55.96727 | 37.40116 | 644 ft | 10 kts | 74° |
| 2026-05-07 18:16 | 55.96749 | 37.40288 | 644 ft | 18 kts | 75° |
| 2026-05-07 18:17 | 55.96787 | 37.40547 | 644 ft | 25 kts | 71° |
| 2026-05-07 18:17 | 55.96837 | 37.40879 | 644 ft | 28 kts | 75° |
| 2026-05-07 18:17 | 55.96879 | 37.41187 | 644 ft | 23 kts | 73° |
| 2026-05-07 18:17 | 55.96921 | 37.41436 | 644 ft | 20 kts | 73° |
| 2026-05-07 18:18 | 55.96956 | 37.41669 | 644 ft | 19 kts | 75° |
| 2026-05-07 18:18 | 55.96991 | 37.41903 | 644 ft | 26 kts | 75° |
| 2026-05-07 18:18 | 55.97035 | 37.42204 | 644 ft | 23 kts | 75° |
| 2026-05-07 18:18 | 55.97073 | 37.42453 | 644 ft | 19 kts | 75° |
| 2026-05-07 18:19 | 55.97111 | 37.42705 | 644 ft | 25 kts | 75° |
| 2026-05-07 18:19 | 55.97163 | 37.43051 | 644 ft | 32 kts | 75° |
| 2026-05-07 18:19 | 55.97227 | 37.43469 | 644 ft | 35 kts | 73° |
| 2026-05-07 18:19 | 55.97284 | 37.43854 | 644 ft | 29 kts | 77° |
| 2026-05-07 18:20 | 55.97329 | 37.44174 | 644 ft | 24 kts | 75° |
| 2026-05-07 18:20 | 55.97395 | 37.44396 | 644 ft | 17 kts | 22° |
| 2026-05-07 18:20 | 55.97493 | 37.44400 | 644 ft | 12 kts | 343° |
| 2026-05-07 18:20 | 55.97547 | 37.44339 | 644 ft | 6 kts | 288° |
| 2026-05-07 18:21 | 55.97517 | 37.43973 | 644 ft | 71 kts | 250° |
| 2026-05-07 18:21 | 55.97317 | 37.42621 | 644 ft | 151 kts | 253° |
| 2026-05-07 18:21 | 55.96963 | 37.40395 | 694 ft | 215 kts | 254° |
| 2026-05-07 18:21 | 55.96557 | 37.37727 | 1504 ft | 231 kts | 254° |
| 2026-05-07 18:22 | 55.96104 | 37.34756 | 1755 ft | 264 kts | 253° |
| 2026-05-07 18:22 | 55.95767 | 37.32586 | 1955 ft | 278 kts | 253° |
| 2026-05-07 18:22 | 55.95095 | 37.28230 | 3364 ft | 263 kts | 253° |
| 2026-05-07 18:22 | 55.94620 | 37.25141 | 4439 ft | 252 kts | 254° |
| 2026-05-07 18:23 | 55.94161 | 37.22119 | 5225 ft | 254 kts | 254° |
| 2026-05-07 18:23 | 55.93699 | 37.19090 | 5964 ft | 256 kts | 255° |
| 2026-05-07 18:23 | 55.93263 | 37.16212 | 6590 ft | 259 kts | 255° |
| 2026-05-07 18:23 | 55.92794 | 37.13153 | 7450 ft | 255 kts | 255° |
| 2026-05-07 18:24 | 55.92322 | 37.10063 | 8079 ft | 263 kts | 255° |
| 2026-05-07 18:24 | 55.91837 | 37.06895 | 8677 ft | 268 kts | 255° |
| 2026-05-07 18:24 | 55.91369 | 37.03697 | 9439 ft | 268 kts | 255° |
| 2026-05-07 18:24 | 55.90959 | 37.00367 | 9779 ft | 285 kts | 261° |
| 2026-05-07 18:25 | 55.90793 | 36.96722 | 10042 ft | 303 kts | 268° |
| 2026-05-07 18:25 | 55.90812 | 36.92856 | 10301 ft | 319 kts | 271° |
| 2026-05-07 18:25 | 55.90914 | 36.88828 | 10557 ft | 335 kts | 272° |
| 2026-05-07 18:25 | 55.91055 | 36.84587 | 10830 ft | 349 kts | 272° |
| 2026-05-07 18:26 | 55.91186 | 36.80172 | 11145 ft | 360 kts | 272° |
| 2026-05-07 18:26 | 55.91207 | 36.75650 | 11429 ft | 370 kts | 266° |
| 2026-05-07 18:26 | 55.90844 | 36.71021 | 11808 ft | 378 kts | 258° |
| 2026-05-07 18:26 | 55.90213 | 36.66449 | 12156 ft | 385 kts | 255° |
| 2026-05-07 18:27 | 55.89462 | 36.61816 | 12663 ft | 387 kts | 253° |
| 2026-05-07 18:27 | 55.88685 | 36.57183 | 13105 ft | 392 kts | 253° |
| 2026-05-07 18:27 | 55.87933 | 36.52544 | 13579 ft | 395 kts | 254° |
| 2026-05-07 18:27 | 55.87231 | 36.47797 | 14088 ft | 397 kts | 256° |
| 2026-05-07 18:28 | 55.86579 | 36.42961 | 14629 ft | 399 kts | 257° |
| 2026-05-07 18:28 | 55.85959 | 36.38155 | 14992 ft | 405 kts | 257° |
| 2026-05-07 18:28 | 55.85368 | 36.33184 | 15423 ft | 409 kts | 258° |
| 2026-05-07 18:28 | 55.84800 | 36.28246 | 15825 ft | 413 kts | 258° |
| 2026-05-07 18:29 | 55.84206 | 36.23195 | 16303 ft | 415 kts | 258° |
| 2026-05-07 18:29 | 55.83615 | 36.18133 | 16792 ft | 417 kts | 258° |
| 2026-05-07 18:29 | 55.83003 | 36.13087 | 17250 ft | 419 kts | 257° |
| 2026-05-07 18:29 | 55.82377 | 36.07976 | 17609 ft | 423 kts | 257° |
| 2026-05-07 18:30 | 55.81734 | 36.02886 | 18055 ft | 425 kts | 257° |
| 2026-05-07 18:30 | 55.81033 | 35.97738 | 18531 ft | 426 kts | 256° |
| 2026-05-07 18:30 | 55.80345 | 35.92641 | 18925 ft | 429 kts | 256° |
| 2026-05-07 18:30 | 55.79654 | 35.87458 | 19330 ft | 432 kts | 256° |
| 2026-05-07 18:31 | 55.78955 | 35.82232 | 19683 ft | 436 kts | 257° |
| 2026-05-07 18:31 | 55.78292 | 35.76945 | 20059 ft | 438 kts | 258° |
| 2026-05-07 18:31 | 55.77653 | 35.71637 | 20478 ft | 439 kts | 258° |
| 2026-05-07 18:31 | 55.76999 | 35.66297 | 20907 ft | 440 kts | 257° |
| 2026-05-07 18:32 | 55.76326 | 35.60978 | 21269 ft | 442 kts | 257° |
| 2026-05-07 18:32 | 55.75631 | 35.55686 | 21741 ft | 442 kts | 256° |
| 2026-05-07 18:32 | 55.75064 | 35.50367 | 22201 ft | 441 kts | 262° |
| 2026-05-07 18:32 | 55.74760 | 35.44902 | 22593 ft | 442 kts | 265° |
| 2026-05-07 18:33 | 55.74576 | 35.39464 | 22967 ft | 443 kts | 266° |
| 2026-05-07 18:33 | 55.74421 | 35.33939 | 23261 ft | 446 kts | 266° |
| 2026-05-07 18:33 | 55.74268 | 35.28456 | 23591 ft | 448 kts | 266° |
| 2026-05-07 18:33 | 55.74076 | 35.22897 | 23862 ft | 452 kts | 266° |
| 2026-05-07 18:34 | 55.73858 | 35.17301 | 24155 ft | 454 kts | 265° |
| 2026-05-07 18:34 | 55.73636 | 35.11732 | 24474 ft | 455 kts | 265° |
| 2026-05-07 18:34 | 55.73393 | 35.06199 | 24830 ft | 455 kts | 265° |
| 2026-05-07 18:34 | 55.73104 | 35.00556 | 25112 ft | 457 kts | 264° |
| 2026-05-07 18:35 | 55.72798 | 34.94917 | 25460 ft | 458 kts | 264° |
| 2026-05-07 18:35 | 55.72506 | 34.89287 | 25732 ft | 460 kts | 264° |
| 2026-05-07 18:35 | 55.72225 | 34.83656 | 25951 ft | 463 kts | 264° |
| 2026-05-07 18:35 | 55.71943 | 34.77923 | 26217 ft | 465 kts | 264° |
| 2026-05-07 18:36 | 55.71656 | 34.72186 | 26504 ft | 465 kts | 264° |
| 2026-05-07 18:36 | 55.71370 | 34.66447 | 26794 ft | 467 kts | 264° |
| 2026-05-07 18:36 | 55.71078 | 34.60695 | 27011 ft | 469 kts | 263° |
| 2026-05-07 18:36 | 55.70486 | 34.55054 | 27210 ft | 471 kts | 255° |
| 2026-05-07 18:37 | 55.69503 | 34.49484 | 27499 ft | 471 kts | 251° |
| 2026-05-07 18:37 | 55.68361 | 34.44050 | 27730 ft | 473 kts | 249° |
| 2026-05-07 18:37 | 55.67139 | 34.38530 | 27918 ft | 476 kts | 249° |
| 2026-05-07 18:37 | 55.65933 | 34.33127 | 28153 ft | 476 kts | 249° |
| 2026-05-07 18:38 | 55.64720 | 34.27684 | 28354 ft | 478 kts | 249° |
| 2026-05-07 18:38 | 55.63488 | 34.22130 | 28647 ft | 477 kts | 249° |
| 2026-05-07 18:38 | 55.62316 | 34.16715 | 28881 ft | 478 kts | 249° |
| 2026-05-07 18:38 | 55.61122 | 34.11183 | 29077 ft | 480 kts | 249° |
| 2026-05-07 18:39 | 55.59924 | 34.05620 | 29285 ft | 480 kts | 249° |
| 2026-05-07 18:39 | 55.58754 | 34.00127 | 29502 ft | 481 kts | 250° |
| 2026-05-07 18:39 | 55.57613 | 33.94577 | 29686 ft | 482 kts | 250° |
| 2026-05-07 18:39 | 55.56444 | 33.88941 | 29909 ft | 482 kts | 250° |
| 2026-05-07 18:40 | 55.55299 | 33.83439 | 30106 ft | 483 kts | 250° |
| 2026-05-07 18:40 | 55.54515 | 33.79690 | 30226 ft | 484 kts | 250° |
| 2026-05-07 18:40 | 55.53341 | 33.74058 | 30407 ft | 485 kts | 250° |
| 2026-05-07 18:40 | 55.52172 | 33.68465 | 30591 ft | 485 kts | 250° |
| 2026-05-07 18:41 | 55.51035 | 33.62970 | 30768 ft | 485 kts | 251° |
| 2026-05-07 18:41 | 55.50030 | 33.57234 | 30957 ft | 485 kts | 254° |
| 2026-05-07 18:41 | 55.49191 | 33.51494 | 31083 ft | 486 kts | 256° |
| 2026-05-07 18:41 | 55.48403 | 33.45694 | 31338 ft | 484 kts | 256° |
| 2026-05-07 18:42 | 55.47612 | 33.39865 | 31559 ft | 484 kts | 256° |
| 2026-05-07 18:42 | 55.46834 | 33.34175 | 31737 ft | 483 kts | 256° |
| 2026-05-07 18:42 | 55.46022 | 33.28411 | 31905 ft | 483 kts | 256° |
| 2026-05-07 18:42 | 55.45202 | 33.22660 | 32062 ft | 484 kts | 256° |
| 2026-05-07 18:43 | 55.44378 | 33.16928 | 32256 ft | 483 kts | 256° |
| 2026-05-07 18:43 | 55.43541 | 33.11123 | 32423 ft | 483 kts | 256° |
| 2026-05-07 18:43 | 55.42708 | 33.05447 | 32603 ft | 482 kts | 255° |
| 2026-05-07 18:43 | 55.41846 | 32.99692 | 32766 ft | 482 kts | 255° |
| 2026-05-07 18:44 | 55.40965 | 32.94038 | 32916 ft | 482 kts | 254° |
| 2026-05-07 18:44 | 55.40070 | 32.88373 | 33062 ft | 482 kts | 254° |
| 2026-05-07 18:44 | 55.39177 | 32.82723 | 33200 ft | 482 kts | 254° |
| 2026-05-07 18:44 | 55.38271 | 32.77017 | 33360 ft | 481 kts | 254° |
| 2026-05-07 18:45 | 55.37366 | 32.71281 | 33513 ft | 481 kts | 255° |
| 2026-05-07 18:45 | 55.36510 | 32.65603 | 33689 ft | 480 kts | 255° |
| 2026-05-07 18:45 | 55.35683 | 32.59962 | 33857 ft | 479 kts | 255° |
| 2026-05-07 18:45 | 55.34847 | 32.54287 | 33980 ft | 479 kts | 255° |
| 2026-05-07 18:46 | 55.34000 | 32.48583 | 34110 ft | 479 kts | 255° |
| 2026-05-07 18:46 | 55.33168 | 32.42970 | 34261 ft | 478 kts | 255° |
| 2026-05-07 18:46 | 55.32326 | 32.37345 | 34393 ft | 477 kts | 255° |
| 2026-05-07 18:46 | 55.31456 | 32.31657 | 34576 ft | 476 kts | 255° |
| 2026-05-07 18:47 | 55.30576 | 32.26084 | 34748 ft | 475 kts | 254° |
| 2026-05-07 18:47 | 55.29671 | 32.20543 | 34905 ft | 474 kts | 254° |
| 2026-05-07 18:47 | 55.28780 | 32.15003 | 35060 ft | 473 kts | 254° |
| 2026-05-07 18:47 | 55.27890 | 32.09475 | 35225 ft | 472 kts | 254° |
| 2026-05-07 18:48 | 55.26979 | 32.03899 | 35386 ft | 470 kts | 254° |
| 2026-05-07 18:48 | 55.26075 | 31.98427 | 35565 ft | 469 kts | 253° |
| 2026-05-07 18:48 | 55.25170 | 31.92964 | 35783 ft | 466 kts | 254° |
| 2026-05-07 18:48 | 55.24275 | 31.87507 | 35981 ft | 465 kts | 254° |
| 2026-05-07 18:49 | 55.23406 | 31.82016 | 36126 ft | 464 kts | 255° |
| 2026-05-07 18:49 | 55.22572 | 31.76618 | 36276 ft | 463 kts | 255° |
| 2026-05-07 18:49 | 55.21726 | 31.71167 | 36391 ft | 463 kts | 255° |
| 2026-05-07 18:49 | 55.20869 | 31.65676 | 36533 ft | 462 kts | 255° |
| 2026-05-07 18:50 | 55.20021 | 31.60291 | 36668 ft | 461 kts | 254° |
| 2026-05-07 18:50 | 55.19156 | 31.54914 | 36813 ft | 460 kts | 254° |
| 2026-05-07 18:50 | 55.18260 | 31.49479 | 36958 ft | 459 kts | 253° |
| 2026-05-07 18:50 | 55.17379 | 31.44166 | 37092 ft | 458 kts | 254° |
| 2026-05-07 18:51 | 55.16506 | 31.38811 | 37252 ft | 456 kts | 254° |
| 2026-05-07 18:51 | 55.15633 | 31.33470 | 37485 ft | 453 kts | 254° |
| 2026-05-07 18:51 | 55.14771 | 31.28183 | 37701 ft | 450 kts | 254° |
| 2026-05-07 18:51 | 55.13915 | 31.22958 | 37848 ft | 449 kts | 254° |
| 2026-05-07 18:52 | 55.13022 | 31.17683 | 37964 ft | 449 kts | 253° |
| 2026-05-07 18:52 | 55.11193 | 31.07177 | 38007 ft | 453 kts | 253° |
| 2026-05-07 18:53 | 55.09252 | 30.96601 | 38008 ft | 457 kts | 249° |
| 2026-05-07 18:53 | 55.06653 | 30.86481 | 37987 ft | 461 kts | 244° |
| 2026-05-07 18:54 | 55.03747 | 30.76487 | 37997 ft | 462 kts | 243° |
| 2026-05-07 18:54 | 55.00861 | 30.66361 | 37999 ft | 465 kts | 244° |
| 2026-05-07 18:55 | 54.98028 | 30.56227 | 38009 ft | 466 kts | 245° |
| 2026-05-07 18:55 | 54.95234 | 30.46087 | 38003 ft | 467 kts | 244° |
| 2026-05-07 18:56 | 54.92348 | 30.35853 | 38002 ft | 469 kts | 244° |
| 2026-05-07 18:56 | 54.89543 | 30.25681 | 38000 ft | 470 kts | 245° |
| 2026-05-07 18:57 | 54.86731 | 30.15414 | 37997 ft | 471 kts | 245° |
| 2026-05-07 18:57 | 54.83877 | 30.05106 | 38006 ft | 472 kts | 245° |
| 2026-05-07 18:58 | 54.81005 | 29.94863 | 38007 ft | 472 kts | 244° |
| 2026-05-07 18:58 | 54.78044 | 29.84699 | 37996 ft | 471 kts | 243° |
| 2026-05-07 18:59 | 54.75070 | 29.74556 | 37994 ft | 471 kts | 244° |
| 2026-05-07 18:59 | 54.72108 | 29.64405 | 37998 ft | 470 kts | 244° |
| 2026-05-07 19:00 | 54.69217 | 29.54289 | 37998 ft | 470 kts | 244° |
| 2026-05-07 19:00 | 54.66420 | 29.44133 | 38007 ft | 469 kts | 245° |
| 2026-05-07 19:01 | 54.63616 | 29.33944 | 38006 ft | 469 kts | 245° |
| 2026-05-07 19:01 | 54.60805 | 29.23826 | 38008 ft | 469 kts | 244° |
| 2026-05-07 19:02 | 54.57940 | 29.13667 | 37993 ft | 469 kts | 244° |
| 2026-05-07 19:02 | 54.55098 | 29.03579 | 38013 ft | 468 kts | 245° |
| 2026-05-07 19:03 | 54.52758 | 28.95143 | 38002 ft | 468 kts | 245° |
| 2026-05-07 19:03 | 54.49439 | 28.83431 | 38005 ft | 469 kts | 244° |
| 2026-05-07 19:04 | 54.46590 | 28.73273 | 37995 ft | 468 kts | 246° |
| 2026-05-07 19:04 | 54.44025 | 28.63053 | 37994 ft | 469 kts | 247° |
| 2026-05-07 19:05 | 54.41459 | 28.52704 | 38005 ft | 468 kts | 247° |
| 2026-05-07 19:05 | 54.38900 | 28.42436 | 38006 ft | 469 kts | 247° |
| 2026-05-07 19:06 | 54.36315 | 28.32168 | 37995 ft | 469 kts | 247° |
| 2026-05-07 19:06 | 54.32305 | 28.16795 | 38002 ft | 469 kts | 246° |
| 2026-05-07 19:07 | 54.29633 | 28.06618 | 38006 ft | 469 kts | 246° |
| 2026-05-07 19:07 | 54.26968 | 27.96457 | 37995 ft | 469 kts | 246° |
| 2026-05-07 19:08 | 54.24268 | 27.86316 | 38000 ft | 470 kts | 245° |
| 2026-05-07 19:08 | 54.21541 | 27.76175 | 38004 ft | 470 kts | 246° |
| 2026-05-07 19:09 | 54.19314 | 27.67710 | 38001 ft | 470 kts | 246° |
| 2026-05-07 19:09 | 54.16601 | 27.57531 | 37987 ft | 470 kts | 245° |
| 2026-05-07 19:10 | 54.13865 | 27.47402 | 38005 ft | 469 kts | 246° |
| 2026-05-07 19:10 | 54.11209 | 27.37260 | 38003 ft | 469 kts | 246° |
| 2026-05-07 19:11 | 54.08329 | 27.27241 | 38003 ft | 469 kts | 241° |
| 2026-05-07 19:11 | 54.05032 | 27.17611 | 38003 ft | 469 kts | 240° |
| 2026-05-07 19:12 | 54.01655 | 27.07964 | 37990 ft | 469 kts | 240° |
| 2026-05-07 19:12 | 53.98362 | 26.98342 | 37996 ft | 469 kts | 240° |
| 2026-05-07 19:13 | 53.95129 | 26.88792 | 38003 ft | 469 kts | 240° |
| 2026-05-07 19:13 | 53.91851 | 26.79185 | 38007 ft | 470 kts | 240° |
| 2026-05-07 19:14 | 53.88559 | 26.69557 | 38002 ft | 467 kts | 240° |
| 2026-05-07 19:14 | 53.85271 | 26.60084 | 38007 ft | 468 kts | 240° |
| 2026-05-07 19:15 | 53.81927 | 26.50628 | 38008 ft | 469 kts | 239° |
| 2026-05-07 19:15 | 53.78495 | 26.41188 | 38001 ft | 469 kts | 239° |
| 2026-05-07 19:16 | 53.75105 | 26.31758 | 37988 ft | 470 kts | 239° |
| 2026-05-07 19:16 | 53.71719 | 26.22283 | 37999 ft | 470 kts | 239° |
| 2026-05-07 19:17 | 53.68352 | 26.12826 | 38003 ft | 470 kts | 239° |
| 2026-05-07 19:17 | 53.64985 | 26.03402 | 38005 ft | 470 kts | 239° |
| 2026-05-07 19:18 | 53.61519 | 25.93999 | 38007 ft | 471 kts | 238° |
| 2026-05-07 19:18 | 53.58017 | 25.84624 | 38003 ft | 472 kts | 238° |
| 2026-05-07 19:19 | 53.54590 | 25.75246 | 37997 ft | 473 kts | 239° |
| 2026-05-07 19:19 | 53.51158 | 25.65800 | 38002 ft | 471 kts | 239° |
| 2026-05-07 19:20 | 53.47724 | 25.56369 | 38005 ft | 471 kts | 239° |
| 2026-05-07 19:20 | 53.44321 | 25.47010 | 38007 ft | 471 kts | 239° |
| 2026-05-07 19:21 | 53.40848 | 25.37676 | 37995 ft | 471 kts | 238° |
| 2026-05-07 19:21 | 53.37314 | 25.28402 | 38003 ft | 472 kts | 238° |
| 2026-05-07 19:22 | 53.33781 | 25.19106 | 38001 ft | 471 kts | 238° |
| 2026-05-07 19:22 | 53.30289 | 25.09826 | 38001 ft | 470 kts | 238° |
| 2026-05-07 19:23 | 53.26872 | 25.00590 | 37994 ft | 470 kts | 239° |
| 2026-05-07 19:23 | 53.23410 | 24.91261 | 37990 ft | 471 kts | 238° |
| 2026-05-07 19:24 | 53.19906 | 24.82024 | 38000 ft | 470 kts | 238° |
| 2026-05-07 19:24 | 53.16313 | 24.72858 | 37998 ft | 470 kts | 237° |
| 2026-05-07 19:25 | 53.12773 | 24.63725 | 37992 ft | 471 kts | 238° |
| 2026-05-07 19:25 | 53.09241 | 24.54550 | 38001 ft | 470 kts | 238° |
| 2026-05-07 19:26 | 53.05661 | 24.45353 | 37996 ft | 471 kts | 238° |
| 2026-05-07 19:26 | 53.02160 | 24.36151 | 37996 ft | 472 kts | 239° |
| 2026-05-07 19:27 | 52.98678 | 24.26936 | 37998 ft | 471 kts | 238° |
| 2026-05-07 19:27 | 52.95185 | 24.17762 | 37999 ft | 471 kts | 238° |
| 2026-05-07 19:28 | 52.91630 | 24.08611 | 38002 ft | 472 kts | 237° |
| 2026-05-07 19:28 | 52.88030 | 23.99461 | 38006 ft | 472 kts | 237° |
| 2026-05-07 19:29 | 52.84450 | 23.90402 | 38014 ft | 471 kts | 237° |
| 2026-05-07 19:29 | 52.80877 | 23.81368 | 38009 ft | 471 kts | 237° |
| 2026-05-07 19:30 | 52.77292 | 23.72281 | 38021 ft | 470 kts | 237° |
| 2026-05-07 19:30 | 52.73726 | 23.63223 | 38003 ft | 472 kts | 238° |
| 2026-05-07 19:31 | 52.70152 | 23.54074 | 38004 ft | 472 kts | 238° |
| 2026-05-07 19:31 | 52.66578 | 23.45026 | 37996 ft | 472 kts | 237° |
| 2026-05-07 19:32 | 52.63005 | 23.35995 | 38005 ft | 471 kts | 238° |
| 2026-05-07 19:32 | 52.59401 | 23.26954 | 38001 ft | 472 kts | 237° |
| 2026-05-07 19:33 | 52.55695 | 23.17924 | 38000 ft | 472 kts | 237° |
| 2026-05-07 19:33 | 52.53873 | 23.13495 | 37801 ft | 469 kts | 237° |
| 2026-05-07 19:33 | 52.52032 | 23.09026 | 37107 ft | 467 kts | 237° |
| 2026-05-07 19:34 | 52.50238 | 23.04620 | 36480 ft | 463 kts | 237° |
| 2026-05-07 19:34 | 52.49045 | 23.01668 | 36071 ft | 460 kts | 237° |
| 2026-05-07 19:34 | 52.47308 | 22.97326 | 35470 ft | 457 kts | 238° |
| 2026-05-07 19:34 | 52.45564 | 22.92927 | 34870 ft | 453 kts | 237° |
| 2026-05-07 19:35 | 52.43834 | 22.88621 | 34272 ft | 450 kts | 237° |
| 2026-05-07 19:35 | 52.42132 | 22.84376 | 33671 ft | 447 kts | 237° |
| 2026-05-07 19:35 | 52.40420 | 22.80099 | 33063 ft | 444 kts | 237° |
| 2026-05-07 19:35 | 52.38741 | 22.75911 | 32473 ft | 441 kts | 237° |
| 2026-05-07 19:36 | 52.37017 | 22.71713 | 31870 ft | 439 kts | 236° |
| 2026-05-07 19:36 | 52.35294 | 22.67611 | 31273 ft | 436 kts | 236° |
| 2026-05-07 19:36 | 52.33573 | 22.63547 | 30670 ft | 434 kts | 236° |
| 2026-05-07 19:36 | 52.31853 | 22.59456 | 30067 ft | 431 kts | 236° |
| 2026-05-07 19:37 | 52.30186 | 22.55459 | 29472 ft | 429 kts | 236° |
| 2026-05-07 19:37 | 52.28509 | 22.51416 | 28864 ft | 426 kts | 236° |
| 2026-05-07 19:37 | 52.26848 | 22.47405 | 28250 ft | 424 kts | 236° |
| 2026-05-07 19:37 | 52.25198 | 22.43405 | 27640 ft | 422 kts | 237° |
| 2026-05-07 19:38 | 52.23592 | 22.39459 | 27030 ft | 420 kts | 237° |
| 2026-05-07 19:38 | 52.21951 | 22.35425 | 26410 ft | 418 kts | 237° |
| 2026-05-07 19:38 | 52.20327 | 22.31464 | 25806 ft | 415 kts | 237° |
| 2026-05-07 19:38 | 52.18733 | 22.27593 | 25210 ft | 413 kts | 237° |
| 2026-05-07 19:39 | 52.17133 | 22.23751 | 24608 ft | 411 kts | 236° |
| 2026-05-07 19:39 | 52.15766 | 22.19659 | 24001 ft | 408 kts | 249° |
| 2026-05-07 19:39 | 52.15204 | 22.15173 | 23401 ft | 405 kts | 266° |
| 2026-05-07 19:39 | 52.15301 | 22.10622 | 22793 ft | 404 kts | 275° |
| 2026-05-07 19:40 | 52.15672 | 22.06084 | 22206 ft | 402 kts | 276° |
| 2026-05-07 19:40 | 52.15973 | 22.01555 | 21565 ft | 400 kts | 273° |
| 2026-05-07 19:40 | 52.16170 | 21.97073 | 20967 ft | 398 kts | 275° |
| 2026-05-07 19:40 | 52.16509 | 21.92635 | 20387 ft | 396 kts | 277° |
| 2026-05-07 19:41 | 52.16965 | 21.88107 | 19785 ft | 394 kts | 279° |
| 2026-05-07 19:41 | 52.17422 | 21.83959 | 19220 ft | 392 kts | 279° |
| 2026-05-07 19:41 | 52.17834 | 21.79563 | 18609 ft | 390 kts | 274° |
| 2026-05-07 19:41 | 52.17628 | 21.75220 | 18014 ft | 387 kts | 256° |
| 2026-05-07 19:42 | 52.16572 | 21.71184 | 17386 ft | 386 kts | 240° |
| 2026-05-07 19:42 | 52.15044 | 21.67633 | 16701 ft | 384 kts | 233° |
| 2026-05-07 19:42 | 52.13339 | 21.64344 | 16024 ft | 374 kts | 230° |
| 2026-05-07 19:42 | 52.11641 | 21.61112 | 15310 ft | 366 kts | 231° |
| 2026-05-07 19:43 | 52.10026 | 21.58020 | 14646 ft | 359 kts | 231° |
| 2026-05-07 19:43 | 52.08442 | 21.54890 | 13945 ft | 352 kts | 232° |
| 2026-05-07 19:43 | 52.06925 | 21.51806 | 13274 ft | 345 kts | 232° |
| 2026-05-07 19:43 | 52.05458 | 21.48788 | 12586 ft | 340 kts | 233° |
| 2026-05-07 19:44 | 52.04018 | 21.45795 | 11915 ft | 334 kts | 233° |
| 2026-05-07 19:44 | 52.02598 | 21.42844 | 11252 ft | 329 kts | 233° |
| 2026-05-07 19:44 | 52.01194 | 21.39952 | 10584 ft | 325 kts | 233° |
| 2026-05-07 19:44 | 51.99784 | 21.37061 | 9955 ft | 319 kts | 233° |
| 2026-05-07 19:45 | 51.98423 | 21.34221 | 9441 ft | 311 kts | 233° |
| 2026-05-07 19:45 | 51.97135 | 21.31501 | 8943 ft | 303 kts | 234° |
| 2026-05-07 19:45 | 51.95866 | 21.28782 | 8435 ft | 296 kts | 234° |
| 2026-05-07 19:45 | 51.94680 | 21.26199 | 7934 ft | 290 kts | 237° |
| 2026-05-07 19:46 | 51.93876 | 21.23214 | 7397 ft | 283 kts | 258° |
| 2026-05-07 19:46 | 51.93829 | 21.20076 | 6909 ft | 278 kts | 275° |
| 2026-05-07 19:46 | 51.94397 | 21.17142 | 6408 ft | 276 kts | 297° |
| 2026-05-07 19:46 | 51.95624 | 21.14786 | 5916 ft | 275 kts | 315° |
| 2026-05-07 19:47 | 51.97195 | 21.13001 | 5425 ft | 274 kts | 327° |
| 2026-05-07 19:47 | 51.98953 | 21.11776 | 4897 ft | 276 kts | 344° |
| 2026-05-07 19:47 | 52.00873 | 21.11813 | 4399 ft | 276 kts | 12° |
| 2026-05-07 19:47 | 52.02514 | 21.13275 | 4177 ft | 264 kts | 41° |
| 2026-05-07 19:48 | 52.03468 | 21.15691 | 4061 ft | 247 kts | 72° |
| 2026-05-07 19:48 | 52.03529 | 21.18392 | 4014 ft | 230 kts | 105° |
| 2026-05-07 19:48 | 52.02828 | 21.20596 | 4049 ft | 224 kts | 128° |
| 2026-05-07 19:48 | 52.01802 | 21.22551 | 3994 ft | 224 kts | 135° |
| 2026-05-07 19:49 | 52.00741 | 21.24382 | 3983 ft | 223 kts | 136° |
| 2026-05-07 19:49 | 51.99683 | 21.26179 | 3999 ft | 223 kts | 136° |
| 2026-05-07 19:49 | 51.98507 | 21.27808 | 3939 ft | 222 kts | 152° |
| 2026-05-07 19:49 | 51.97026 | 21.28391 | 3567 ft | 219 kts | 183° |
| 2026-05-07 19:50 | 51.95622 | 21.27573 | 3128 ft | 215 kts | 216° |
| 2026-05-07 19:50 | 51.94817 | 21.25649 | 3005 ft | 204 kts | 252° |
| 2026-05-07 19:50 | 51.94822 | 21.23379 | 3046 ft | 204 kts | 280° |
| 2026-05-07 19:50 | 51.95261 | 21.21180 | 3024 ft | 207 kts | 291° |
| 2026-05-07 19:51 | 51.95803 | 21.19018 | 3005 ft | 207 kts | 292° |
| 2026-05-07 19:51 | 51.96352 | 21.16834 | 3010 ft | 207 kts | 292° |
| 2026-05-07 19:51 | 51.96921 | 21.14738 | 3006 ft | 205 kts | 299° |
| 2026-05-07 19:51 | 51.97869 | 21.13074 | 3000 ft | 197 kts | 321° |
| 2026-05-07 19:52 | 51.98991 | 21.11845 | 3008 ft | 194 kts | 327° |
| 2026-05-07 19:52 | 52.00192 | 21.10816 | 3005 ft | 193 kts | 335° |
| 2026-05-07 19:52 | 52.01429 | 21.09947 | 3000 ft | 194 kts | 336° |
| 2026-05-07 19:52 | 52.02648 | 21.08998 | 3020 ft | 192 kts | 333° |
| 2026-05-07 19:53 | 52.03765 | 21.07982 | 2973 ft | 180 kts | 330° |
| 2026-05-07 19:53 | 52.04842 | 21.06993 | 2738 ft | 175 kts | 331° |
| 2026-05-07 19:53 | 52.05874 | 21.06063 | 2508 ft | 166 kts | 330° |
| 2026-05-07 19:53 | 52.06874 | 21.05175 | 2277 ft | 162 kts | 332° |
| 2026-05-07 19:54 | 52.07860 | 21.04309 | 2081 ft | 158 kts | 332° |
| 2026-05-07 19:54 | 52.08828 | 21.03471 | 1844 ft | 159 kts | 332° |
| 2026-05-07 19:54 | 52.09790 | 21.02633 | 1652 ft | 155 kts | 332° |
| 2026-05-07 19:54 | 52.10738 | 21.01805 | 1455 ft | 153 kts | 332° |
| 2026-05-07 19:55 | 52.11690 | 21.00976 | 1233 ft | 153 kts | 332° |
| 2026-05-07 19:55 | 52.12613 | 21.00172 | 1045 ft | 153 kts | 332° |
| 2026-05-07 19:55 | 52.13564 | 20.99341 | 830 ft | 152 kts | 332° |
| 2026-05-07 19:55 | 52.14481 | 20.98541 | 643 ft | 152 kts | 332° |
| 2026-05-07 19:56 | 52.15424 | 20.97685 | 396 ft | 154 kts | 340° |
| 2026-05-07 19:56 | 52.16292 | 20.96984 | 375 ft | 117 kts | 323° |
| 2026-05-07 19:56 | 52.16807 | 20.96526 | 375 ft | 51 kts | 333° |
| 2026-05-07 19:56 | 52.17014 | 20.96353 | 375 ft | 24 kts | 332° |
| 2026-05-07 19:57 | 52.17148 | 20.96257 | 375 ft | 18 kts | 345° |
| 2026-05-07 19:57 | 52.17261 | 20.96250 | 375 ft | 15 kts | 359° |
| 2026-05-07 19:57 | 52.17342 | 20.96250 | 375 ft | 7 kts | 5° |
| 2026-05-07 19:57 | 52.17381 | 20.96271 | 375 ft | 6 kts | 33° |
| 2026-05-07 19:58 | 52.17411 | 20.96350 | 375 ft | 6 kts | 68° |
| 2026-05-07 19:58 | 52.17418 | 20.96396 | 375 ft | 10 kts | 72° |
| 2026-05-07 19:58 | 52.17447 | 20.96500 | 375 ft | 8 kts | 60° |
| 2026-05-07 19:58 | 52.17500 | 20.96655 | 375 ft | 2 kts | 72° |
| 2026-05-07 19:59 | 52.17498 | 20.96681 | 375 ft | 3 kts | 113° |
| 2026-05-07 19:59 | 52.17464 | 20.96758 | 375 ft | 0 kts | 134° |